Skip to content
You are here: Gozo Weather
Gozo Weather Station for the very latest live weather conditions from Gozo and Malta
 
 TIME   TEMPERATURE   WINDSPEED   DIRECTION   HUMIDITY   BAROMETER   RAINFALL 
3:05 15.1°C (59.2°F) 13.0 kmh (8.1 mph) WNW 61% 1010.0hPa (29.83 inHg) 1.0mm (0.04 in.)
2:05 14.3°C (57.7 °F) 11.1 kmh (6.9 mph) NW 64% 1011.0hPa (29.85 inHg) 1.0mm (0.04 in.)
1:05 13.3°C (55.9 °F) 7.4 kmh (4.6 mph) W 61% 1011.0hPa (29.85 inHg) 1.0mm (0.04 in.)
12:05 11.6°C (52.9 °F) 13.0 kmh (8.1 mph) WSW 55% 1011.0hPa (29.85 inHg) 0.0mm (0.00 in.)
10:59 15.2°C (59.4 °F) 20.4 kmh (12.7 mph) N 48% 1011.0hPa (29.85 inHg) 0.0mm (0.00 in.)
9:59 13.9°C (57.0 °F) 24.1 kmh (15.0 mph) NNW 53% 1010.0hPa (29.83 inHg) 0.0mm (0.00 in.)
8:59 13.4°C (56.1 °F) 13.0 kmh (8.1 mph) NW 53% 1010.0hPa (29.83 inHg) 0.0mm (0.00 in.)
7:59 12.2°C (54.0 °F) 24.1 kmh (15.0 mph) NNW 53% 1010.0hPa (29.83 inHg) 0.0mm (0.00 in.)
6:59 12.1°C (53.8 °F) 33.3 kmh (20.7 mph) NW 52% 1010.0hPa (29.83 inHg) 0.0mm (0.00 in.)
5:59 12.1°C (53.8 °F) 25.9 kmh (16.1 mph) NW 53% 1010.0hPa (29.83 inHg) 0.0mm (0.00 in.)
4:59 12.1°C (53.8 °F) 24.1 kmh (15.0 mph) NW 52% 1010.0hPa (29.83 inHg) 0.0mm (0.00 in.)
3:59 12.3°C (54.1 °F) 25.9 kmh (16.1 mph) NW 49% 1010.0hPa (29.83 inHg) 0.0mm (0.00 in.)
2:59 12.3°C (54.1 °F) 24.1 kmh (15.0 mph) NW 47% 1011.0hPa (29.85 inHg) 0.0mm (0.00 in.)
1:59 12.4°C (54.3 °F) 25.9 kmh (16.1 mph) NNW 46% 1011.0hPa (29.85 inHg) 0.0mm (0.00 in.)
12:59 12.6°C (54.7 °F) 20.4 kmh (12.7 mph) N 47% 1012.0hPa (29.88 inHg) 0.0mm (0.00 in.)
11:59 12.7°C (54.9 °F) 16.7 kmh (10.4 mph) NNW 47% 1012.0hPa (29.88 inHg) 0.0mm (0.00 in.)
10:59 12.9°C (55.2 °F) 20.4 kmh (12.7 mph) NNW 46% 1012.0hPa (29.88 inHg) 0.0mm (0.00 in.)
9:59 12.4°C (54.3 °F) 22.2 kmh (13.8 mph) NNW 49% 1012.0hPa (29.88 inHg) 0.0mm (0.00 in.)
8:59 12.6°C (54.7 °F) 11.1 kmh (6.9 mph) SW 49% 1012.0hPa (29.88 inHg) 0.0mm (0.00 in.)
7:59 13.0°C (55.4 °F) 24.1 kmh (15.0 mph) NW 47% 1012.0hPa (29.88 inHg) 0.0mm (0.00 in.)
6:59 13.9°C (57.0 °F) 20.4 kmh (12.7 mph) NNW 45% 1012.0hPa (29.88 inHg) 0.0mm (0.00 in.)
5:59 14.0°C (57.2 °F) 22.2 kmh (13.8 mph) NNW 44% 1012.0hPa (29.88 inHg) 0.0mm (0.00 in.)
4:59 14.4°C (57.9 °F) 13.0 kmh (8.1 mph) SW 44% 1012.0hPa (29.88 inHg) 0.0mm (0.00 in.)
3:59 14.7°C (58.5 °F) 22.2 kmh (13.8 mph) W 43% 1012.0hPa (29.88 inHg) 0.0mm (0.00 in.)

You need the latest version of Flash Player to view some of our content.


Why not download and install the latest version now?
It will only take you a moment and will ensure that you can view all the latest flash designed websites.

Translate this page

Animated Satellite

Click per aprire http://www.gozo.ws/Animation.php
copyright 2014 EUMETSAT

European Lightning Activity


Please click image for full size

Sponsored Links